Dr. Babasaheb Ambedkar International Airport
VANP : now visible

Airfield :











YOU CAN JOIN US ON...

 
LOGIN :

Register | Disclaimer

   EN    FR    IT 

 









Legend :    VFR   Marginal VFR   IFR   Intensive IFR   Very Intensive IFR
Visi :
Ceiling :
>= 8 km
>= 3000ft
5 to 8 km
1000 to 3000 ft
1500m to 5 km
500 to 1000 ft
800 to 1500m
200 to 500 ft
< 800m
< 200 ft
Symbols :   Thunderstorms  Fog  Heavy snow  Heavy precipitations  Wind > 20 kt






- Airport Elevation : 1033 ft
- IATA code : NAG


VANP - Dr. Babasaheb Ambedkar International

CURRENT METAR :
  • 310800Z 23003KT 6000 SCT025 40/15 Q1006 NOSIG

EXPIRED METARs :
  • 310730Z 35002KT 6000 SCT020 39/16 Q1007 NOSIG
  • 310700Z 11002KT 6000 FEW025 39/16 Q1008 NOSIG
  • 310630Z 05002KT 6000 FEW020 38/16 Q1008 NOSIG
  • 310600Z 12005KT 6000 FEW020 38/16 Q1009 NOSIG
  • 310530Z 06003KT 6000 FEW020 37/16 Q1010 NOSIG

TAF TAF VANP
Valid from the 31 at 06:00 until the 01 at 12:00 UTC


310500Z 3106/0112 22004KT 6000 SCT020 SCT100
TEMPO 3110/3114 32015G25KT 2000 TSRA SCT018 FEW030CB BKN080
BECMG 3112/3114 18004KT 5000 HZ SCT020 BKN100
TEMPO 3119/3123 32015G25KT 2000 TSRA SCT018 FEW030CB BKN080
BECMG 0100/0102 25005KT 4000 HZ FEW020 SCT100
BECMG 0104/0106 18005KT 6000
VABF FIR / Asia



MET'MAP, your aeronautical weather chart ! - Copyright ORBIFLY December 2007 - Disclaimer

ORBIFLY MET'MAP TEAM :

Programming & Development : Alexandra Zaïnal
Concept & original design : Baudouin d'Aumeries
Assistance for programming : Marc-Olivier Méhu
Technical & hardware support : Manuel Goepfert

Contact : metmap@orbifly.com




SOURCES & CREDITS :

   NOAA       Earth
Advisory